sensor_id;sensor_type;location;lat;lon;timestamp;pressure;altitude;pressure_sealevel;temperature;humidity
60465;BME280;46314;52.392;9.758;2022-08-30T00:00:32;101454.53;;;18.71;65.69
60465;BME280;46314;52.392;9.758;2022-08-30T00:03:00;101449.25;;;18.69;65.99
60465;BME280;46314;52.392;9.758;2022-08-30T00:05:27;101450.84;;;18.49;66.37
60465;BME280;46314;52.392;9.758;2022-08-30T00:07:54;101451.13;;;17.92;68.47
60465;BME280;46314;52.392;9.758;2022-08-30T00:10:20;101449.97;;;17.58;69.87
60465;BME280;46314;52.392;9.758;2022-08-30T00:12:47;101453.59;;;17.58;69.92
60465;BME280;46314;52.392;9.758;2022-08-30T00:15:15;101446.84;;;17.77;69.40
60465;BME280;46314;52.392;9.758;2022-08-30T00:17:42;101452.63;;;17.81;69.36
60465;BME280;46314;52.392;9.758;2022-08-30T00:20:13;101457.91;;;17.65;69.72
60465;BME280;46314;52.392;9.758;2022-08-30T00:22:39;101460.34;;;18.10;68.50
60465;BME280;46314;52.392;9.758;2022-08-30T00:25:06;101449.47;;;18.08;68.04
60465;BME280;46314;52.392;9.758;2022-08-30T00:27:33;101463.94;;;18.37;66.88
60465;BME280;46314;52.392;9.758;2022-08-30T00:29:59;101461.03;;;18.15;67.34
60465;BME280;46314;52.392;9.758;2022-08-30T00:32:26;101454.56;;;18.15;67.15
60465;BME280;46314;52.392;9.758;2022-08-30T00:34:54;101454.44;;;17.94;67.98
60465;BME280;46314;52.392;9.758;2022-08-30T00:37:21;101451.97;;;18.01;68.01
60465;BME280;46314;52.392;9.758;2022-08-30T00:39:47;101447.94;;;18.20;67.34
60465;BME280;46314;52.392;9.758;2022-08-30T00:42:15;101451.19;;;18.39;66.55
60465;BME280;46314;52.392;9.758;2022-08-30T00:44:42;101455.25;;;18.03;67.78
60465;BME280;46314;52.392;9.758;2022-08-30T00:47:09;101451.97;;;17.84;68.21
60465;BME280;46314;52.392;9.758;2022-08-30T00:49:37;101459.19;;;17.85;68.45
60465;BME280;46314;52.392;9.758;2022-08-30T00:52:05;101455.13;;;17.91;68.12
60465;BME280;46314;52.392;9.758;2022-08-30T00:54:32;101452.44;;;18.03;67.77
60465;BME280;46314;52.392;9.758;2022-08-30T00:57:01;101454.25;;;18.08;67.90
60465;BME280;46314;52.392;9.758;2022-08-30T00:59:28;101450.25;;;18.26;67.09
60465;BME280;46314;52.392;9.758;2022-08-30T01:01:55;101451.13;;;18.01;68.11
60465;BME280;46314;52.392;9.758;2022-08-30T01:04:23;101455.41;;;18.07;67.54
60465;BME280;46314;52.392;9.758;2022-08-30T01:06:51;101451.28;;;18.04;67.92
60465;BME280;46314;52.392;9.758;2022-08-30T01:09:18;101445.97;;;17.85;68.45
60465;BME280;46314;52.392;9.758;2022-08-30T01:11:45;101460.88;;;18.03;67.57
60465;BME280;46314;52.392;9.758;2022-08-30T01:14:13;101464.19;;;17.96;67.54
60465;BME280;46314;52.392;9.758;2022-08-30T01:16:41;101465.50;;;17.90;68.12
60465;BME280;46314;52.392;9.758;2022-08-30T01:19:18;101458.56;;;17.70;68.89
60465;BME280;46314;52.392;9.758;2022-08-30T01:21:51;101452.78;;;17.84;68.13
60465;BME280;46314;52.392;9.758;2022-08-30T01:24:20;101452.44;;;17.68;68.95
60465;BME280;46314;52.392;9.758;2022-08-30T01:26:46;101455.91;;;17.83;68.28
60465;BME280;46314;52.392;9.758;2022-08-30T01:29:17;101460.25;;;17.89;67.80
60465;BME280;46314;52.392;9.758;2022-08-30T01:31:45;101455.09;;;17.82;68.27
60465;BME280;46314;52.392;9.758;2022-08-30T01:34:11;101455.56;;;17.32;69.77
60465;BME280;46314;52.392;9.758;2022-08-30T01:36:39;101453.53;;;16.97;71.43
60465;BME280;46314;52.392;9.758;2022-08-30T01:39:13;101452.06;;;17.17;70.81
60465;BME280;46314;52.392;9.758;2022-08-30T01:41:40;101453.94;;;17.31;70.29
60465;BME280;46314;52.392;9.758;2022-08-30T01:44:08;101453.06;;;17.30;70.27
60465;BME280;46314;52.392;9.758;2022-08-30T01:46:39;101452.06;;;16.69;72.37
60465;BME280;46314;52.392;9.758;2022-08-30T01:49:09;101445.03;;;16.40;74.49
60465;BME280;46314;52.392;9.758;2022-08-30T01:51:36;101455.31;;;16.93;72.32
60465;BME280;46314;52.392;9.758;2022-08-30T01:54:03;101454.22;;;17.12;71.75
60465;BME280;46314;52.392;9.758;2022-08-30T01:56:29;101451.66;;;16.84;71.95
60465;BME280;46314;52.392;9.758;2022-08-30T01:58:56;101445.66;;;17.17;71.49
60465;BME280;46314;52.392;9.758;2022-08-30T02:01:28;101448.47;;;17.17;71.10
60465;BME280;46314;52.392;9.758;2022-08-30T02:03:57;101451.09;;;17.13;71.27
60465;BME280;46314;52.392;9.758;2022-08-30T02:06:24;101452.28;;;17.38;70.55
60465;BME280;46314;52.392;9.758;2022-08-30T02:08:50;101449.97;;;17.40;69.94
60465;BME280;46314;52.392;9.758;2022-08-30T02:11:16;101443.78;;;16.95;71.96
60465;BME280;46314;52.392;9.758;2022-08-30T02:13:44;101450.94;;;17.27;70.63
60465;BME280;46314;52.392;9.758;2022-08-30T02:16:14;101452.13;;;17.70;68.60
60465;BME280;46314;52.392;9.758;2022-08-30T02:18:42;101452.13;;;17.70;68.45
60465;BME280;46314;52.392;9.758;2022-08-30T02:21:09;101455.25;;;17.42;68.64
60465;BME280;46314;52.392;9.758;2022-08-30T02:23:35;101447.28;;;17.18;69.61
60465;BME280;46314;52.392;9.758;2022-08-30T02:26:03;101456.38;;;17.41;69.04
60465;BME280;46314;52.392;9.758;2022-08-30T02:28:30;101455.88;;;17.21;69.32
60465;BME280;46314;52.392;9.758;2022-08-30T02:30:57;101459.53;;;17.22;69.59
60465;BME280;46314;52.392;9.758;2022-08-30T02:33:25;101451.09;;;17.13;69.69
60465;BME280;46314;52.392;9.758;2022-08-30T02:35:51;101461.28;;;17.09;69.82
60465;BME280;46314;52.392;9.758;2022-08-30T02:38:17;101454.56;;;17.19;69.52
60465;BME280;46314;52.392;9.758;2022-08-30T02:40:45;101459.16;;;17.23;69.47
60465;BME280;46314;52.392;9.758;2022-08-30T02:43:12;101455.00;;;16.95;70.29
60465;BME280;46314;52.392;9.758;2022-08-30T02:45:38;101458.16;;;17.11;69.82
60465;BME280;46314;52.392;9.758;2022-08-30T02:48:05;101448.66;;;16.80;71.29
60465;BME280;46314;52.392;9.758;2022-08-30T02:50:31;101456.47;;;16.92;70.71
60465;BME280;46314;52.392;9.758;2022-08-30T02:52:57;101457.41;;;17.54;68.45
60465;BME280;46314;52.392;9.758;2022-08-30T02:55:24;101455.06;;;17.38;68.97
60465;BME280;46314;52.392;9.758;2022-08-30T02:57:50;101457.72;;;17.35;69.05
60465;BME280;46314;52.392;9.758;2022-08-30T03:00:19;101458.84;;;17.34;68.95
60465;BME280;46314;52.392;9.758;2022-08-30T03:02:46;101450.63;;;16.71;71.67
60465;BME280;46314;52.392;9.758;2022-08-30T03:05:13;101451.59;;;16.75;71.83
60465;BME280;46314;52.392;9.758;2022-08-30T03:07:40;101450.66;;;16.80;71.99
60465;BME280;46314;52.392;9.758;2022-08-30T03:10:07;101448.31;;;17.22;69.66
60465;BME280;46314;52.392;9.758;2022-08-30T03:12:34;101441.03;;;16.32;73.36
60465;BME280;46314;52.392;9.758;2022-08-30T03:15:01;101453.53;;;17.15;69.85
60465;BME280;46314;52.392;9.758;2022-08-30T03:17:27;101453.44;;;17.64;68.23
60465;BME280;46314;52.392;9.758;2022-08-30T03:19:53;101444.75;;;16.50;72.40
60465;BME280;46314;52.392;9.758;2022-08-30T03:22:20;101455.47;;;16.57;72.37
60465;BME280;46314;52.392;9.758;2022-08-30T03:24:46;101455.03;;;16.32;74.08
60465;BME280;46314;52.392;9.758;2022-08-30T03:27:12;101459.03;;;16.40;73.56
60465;BME280;46314;52.392;9.758;2022-08-30T03:29:39;101454.38;;;16.35;74.26
60465;BME280;46314;52.392;9.758;2022-08-30T03:32:05;101466.56;;;17.02;71.40
60465;BME280;46314;52.392;9.758;2022-08-30T03:34:31;101459.25;;;16.83;72.21
60465;BME280;46314;52.392;9.758;2022-08-30T03:36:58;101454.88;;;17.09;70.57
60465;BME280;46314;52.392;9.758;2022-08-30T03:39:24;101462.56;;;16.86;71.46
60465;BME280;46314;52.392;9.758;2022-08-30T03:41:51;101455.06;;;16.41;73.73
60465;BME280;46314;52.392;9.758;2022-08-30T03:44:18;101454.69;;;16.34;74.31
60465;BME280;46314;52.392;9.758;2022-08-30T03:46:45;101459.44;;;16.56;73.40
60465;BME280;46314;52.392;9.758;2022-08-30T03:49:12;101450.44;;;16.36;73.88
60465;BME280;46314;52.392;9.758;2022-08-30T03:51:38;101458.47;;;17.00;71.53
60465;BME280;46314;52.392;9.758;2022-08-30T03:54:05;101463.97;;;16.83;72.26
60465;BME280;46314;52.392;9.758;2022-08-30T03:56:31;101458.16;;;17.11;70.72
60465;BME280;46314;52.392;9.758;2022-08-30T03:58:57;101455.97;;;16.50;73.64
60465;BME280;46314;52.392;9.758;2022-08-30T04:01:24;101450.53;;;16.22;74.45
60465;BME280;46314;52.392;9.758;2022-08-30T04:03:51;101451.13;;;16.11;75.66
60465;BME280;46314;52.392;9.758;2022-08-30T04:06:17;101464.34;;;15.96;76.15
60465;BME280;46314;52.392;9.758;2022-08-30T04:08:44;101461.81;;;16.08;76.08
60465;BME280;46314;52.392;9.758;2022-08-30T04:11:11;101461.03;;;16.17;75.88
60465;BME280;46314;52.392;9.758;2022-08-30T04:13:37;101457.91;;;15.37;79.07
60465;BME280;46314;52.392;9.758;2022-08-30T04:16:04;101465.44;;;15.86;77.43
60465;BME280;46314;52.392;9.758;2022-08-30T04:18:31;101461.44;;;15.79;77.81
60465;BME280;46314;52.392;9.758;2022-08-30T04:20:57;101467.03;;;16.01;77.23
60465;BME280;46314;52.392;9.758;2022-08-30T04:23:23;101459.88;;;16.18;75.14
60465;BME280;46314;52.392;9.758;2022-08-30T04:25:50;101458.69;;;15.51;79.35
60465;BME280;46314;52.392;9.758;2022-08-30T04:28:16;101462.81;;;15.67;79.11
60465;BME280;46314;52.392;9.758;2022-08-30T04:30:43;101466.53;;;15.99;77.64
60465;BME280;46314;52.392;9.758;2022-08-30T04:33:10;101469.81;;;15.79;78.76
60465;BME280;46314;52.392;9.758;2022-08-30T04:35:46;101465.66;;;15.90;77.77
60465;BME280;46314;52.392;9.758;2022-08-30T04:38:15;101473.88;;;15.95;78.02
60465;BME280;46314;52.392;9.758;2022-08-30T04:40:43;101477.97;;;16.12;77.66
60465;BME280;46314;52.392;9.758;2022-08-30T04:43:10;101472.44;;;15.98;77.33
60465;BME280;46314;52.392;9.758;2022-08-30T04:45:38;101475.50;;;15.87;78.19
60465;BME280;46314;52.392;9.758;2022-08-30T04:48:06;101482.19;;;15.78;79.15
60465;BME280;46314;52.392;9.758;2022-08-30T04:50:32;101478.72;;;16.89;74.86
60465;BME280;46314;52.392;9.758;2022-08-30T04:52:59;101487.97;;;16.35;76.95
60465;BME280;46314;52.392;9.758;2022-08-30T04:55:25;101480.03;;;16.60;75.71
60465;BME280;46314;52.392;9.758;2022-08-30T04:57:52;101486.13;;;16.93;73.96
60465;BME280;46314;52.392;9.758;2022-08-30T05:00:18;101489.31;;;17.09;73.05
60465;BME280;46314;52.392;9.758;2022-08-30T05:02:45;101492.06;;;16.92;73.87
60465;BME280;46314;52.392;9.758;2022-08-30T05:05:12;101501.91;;;17.20;73.23
60465;BME280;46314;52.392;9.758;2022-08-30T05:07:39;101495.56;;;16.35;76.36
60465;BME280;46314;52.392;9.758;2022-08-30T05:10:06;101498.44;;;15.98;78.79
60465;BME280;46314;52.392;9.758;2022-08-30T05:12:37;101497.94;;;15.96;79.16
60465;BME280;46314;52.392;9.758;2022-08-30T05:15:04;101500.94;;;16.22;78.45
60465;BME280;46314;52.392;9.758;2022-08-30T05:17:31;101501.81;;;16.09;79.37
60465;BME280;46314;52.392;9.758;2022-08-30T05:20:00;101499.59;;;15.97;80.09
60465;BME280;46314;52.392;9.758;2022-08-30T05:22:26;101509.00;;;16.24;79.11
60465;BME280;46314;52.392;9.758;2022-08-30T05:24:53;101508.38;;;16.04;80.01
60465;BME280;46314;52.392;9.758;2022-08-30T05:27:19;101507.16;;;15.60;82.14
60465;BME280;46314;52.392;9.758;2022-08-30T05:29:46;101516.38;;;15.61;82.57
60465;BME280;46314;52.392;9.758;2022-08-30T05:32:12;101514.53;;;15.93;81.71
60465;BME280;46314;52.392;9.758;2022-08-30T05:34:39;101509.00;;;16.01;81.16
60465;BME280;46314;52.392;9.758;2022-08-30T05:37:05;101510.59;;;15.94;82.12
60465;BME280;46314;52.392;9.758;2022-08-30T05:39:31;101510.78;;;16.20;80.98
60465;BME280;46314;52.392;9.758;2022-08-30T05:42:16;101515.28;;;16.07;81.10
60465;BME280;46314;52.392;9.758;2022-08-30T05:44:43;101514.47;;;16.29;80.21
60465;BME280;46314;52.392;9.758;2022-08-30T05:47:09;101517.72;;;16.22;81.11
60465;BME280;46314;52.392;9.758;2022-08-30T05:49:36;101510.94;;;16.15;81.16
60465;BME280;46314;52.392;9.758;2022-08-30T05:52:03;101515.94;;;16.58;79.28
60465;BME280;46314;52.392;9.758;2022-08-30T05:54:29;101518.47;;;16.14;80.52
60465;BME280;46314;52.392;9.758;2022-08-30T05:56:55;101524.00;;;16.28;80.33
60465;BME280;46314;52.392;9.758;2022-08-30T05:59:22;101524.63;;;16.47;79.62
60465;BME280;46314;52.392;9.758;2022-08-30T06:01:48;101515.19;;;16.97;76.88
60465;BME280;46314;52.392;9.758;2022-08-30T06:04:15;101514.28;;;17.28;75.67
60465;BME280;46314;52.392;9.758;2022-08-30T06:06:43;101518.44;;;16.91;77.05
60465;BME280;46314;52.392;9.758;2022-08-30T06:09:11;101509.38;;;16.94;76.57
60465;BME280;46314;52.392;9.758;2022-08-30T06:11:38;101514.72;;;16.81;77.06
60465;BME280;46314;52.392;9.758;2022-08-30T06:14:05;101522.16;;;17.17;74.92
60465;BME280;46314;52.392;9.758;2022-08-30T06:16:32;101517.78;;;16.94;76.55
60465;BME280;46314;52.392;9.758;2022-08-30T06:18:58;101523.22;;;16.90;77.11
60465;BME280;46314;52.392;9.758;2022-08-30T06:21:27;101520.97;;;16.16;80.94
60465;BME280;46314;52.392;9.758;2022-08-30T06:23:55;101530.47;;;16.60;78.79
60465;BME280;46314;52.392;9.758;2022-08-30T06:26:21;101528.41;;;17.98;73.24
60465;BME280;46314;52.392;9.758;2022-08-30T06:28:48;101534.81;;;17.06;76.85
60465;BME280;46314;52.392;9.758;2022-08-30T06:31:16;101529.88;;;16.72;77.83
60465;BME280;46314;52.392;9.758;2022-08-30T06:33:44;101532.63;;;17.43;76.12
60465;BME280;46314;52.392;9.758;2022-08-30T06:36:18;101532.50;;;16.99;78.10
60465;BME280;46314;52.392;9.758;2022-08-30T06:38:45;101523.31;;;17.16;76.32
60465;BME280;46314;52.392;9.758;2022-08-30T06:41:16;101537.28;;;17.83;74.33
60465;BME280;46314;52.392;9.758;2022-08-30T06:43:44;101538.13;;;18.35;71.63
60465;BME280;46314;52.392;9.758;2022-08-30T06:46:18;101532.66;;;18.39;71.27
60465;BME280;46314;52.392;9.758;2022-08-30T06:48:45;101538.31;;;17.12;76.40
60465;BME280;46314;52.392;9.758;2022-08-30T06:51:14;101544.72;;;18.31;71.58
60465;BME280;46314;52.392;9.758;2022-08-30T06:53:40;101541.13;;;18.04;73.54
60465;BME280;46314;52.392;9.758;2022-08-30T06:56:09;101536.78;;;18.42;71.05
60465;BME280;46314;52.392;9.758;2022-08-30T06:58:42;101549.03;;;18.28;71.91
60465;BME280;46314;52.392;9.758;2022-08-30T07:01:14;101542.44;;;17.89;73.60
60465;BME280;46314;52.392;9.758;2022-08-30T07:03:41;101536.97;;;17.84;73.76
60465;BME280;46314;52.392;9.758;2022-08-30T07:06:08;101532.63;;;18.48;71.57
60465;BME280;46314;52.392;9.758;2022-08-30T07:08:35;101533.75;;;18.55;71.14
60465;BME280;46314;52.392;9.758;2022-08-30T07:11:03;101541.06;;;17.69;74.27
60465;BME280;46314;52.392;9.758;2022-08-30T07:13:30;101538.84;;;17.22;76.65
60465;BME280;46314;52.392;9.758;2022-08-30T07:15:57;101540.88;;;17.48;74.59
60465;BME280;46314;52.392;9.758;2022-08-30T07:18:23;101544.75;;;16.81;78.51
60465;BME280;46314;52.392;9.758;2022-08-30T07:20:49;101549.66;;;16.75;78.85
60465;BME280;46314;52.392;9.758;2022-08-30T07:23:16;101542.06;;;16.76;79.69
60465;BME280;46314;52.392;9.758;2022-08-30T07:25:43;101537.88;;;16.87;79.26
60465;BME280;46314;52.392;9.758;2022-08-30T07:28:10;101547.41;;;16.55;80.18
60465;BME280;46314;52.392;9.758;2022-08-30T07:30:37;101548.38;;;17.13;78.19
60465;BME280;46314;52.392;9.758;2022-08-30T07:33:04;101545.56;;;17.13;77.15
60465;BME280;46314;52.392;9.758;2022-08-30T07:35:30;101550.47;;;16.98;78.62
60465;BME280;46314;52.392;9.758;2022-08-30T07:37:57;101550.88;;;17.23;78.10
60465;BME280;46314;52.392;9.758;2022-08-30T07:40:24;101547.72;;;17.16;77.18
60465;BME280;46314;52.392;9.758;2022-08-30T07:42:51;101546.34;;;16.96;78.12
60465;BME280;46314;52.392;9.758;2022-08-30T07:45:17;101554.25;;;17.60;75.57
60465;BME280;46314;52.392;9.758;2022-08-30T07:47:44;101555.59;;;17.54;76.03
60465;BME280;46314;52.392;9.758;2022-08-30T07:50:11;101561.75;;;17.82;73.80
60465;BME280;46314;52.392;9.758;2022-08-30T07:52:37;101566.69;;;17.68;73.54
60465;BME280;46314;52.392;9.758;2022-08-30T07:55:04;101558.31;;;17.28;75.44
60465;BME280;46314;52.392;9.758;2022-08-30T07:57:31;101569.28;;;17.73;74.47
60465;BME280;46314;52.392;9.758;2022-08-30T07:59:57;101569.31;;;17.82;74.02
60465;BME280;46314;52.392;9.758;2022-08-30T08:02:23;101569.66;;;17.14;75.75
60465;BME280;46314;52.392;9.758;2022-08-30T08:04:50;101572.41;;;17.05;77.13
60465;BME280;46314;52.392;9.758;2022-08-30T08:07:16;101564.78;;;17.37;75.81
60465;BME280;46314;52.392;9.758;2022-08-30T08:09:43;101565.13;;;17.44;75.84
60465;BME280;46314;52.392;9.758;2022-08-30T08:12:09;101576.72;;;18.73;70.03
60465;BME280;46314;52.392;9.758;2022-08-30T08:14:36;101584.03;;;17.78;73.23
60465;BME280;46314;52.392;9.758;2022-08-30T08:17:02;101579.31;;;17.48;75.09
60465;BME280;46314;52.392;9.758;2022-08-30T08:19:28;101590.91;;;17.64;74.14
60465;BME280;46314;52.392;9.758;2022-08-30T08:21:55;101585.09;;;17.51;74.85
60465;BME280;46314;52.392;9.758;2022-08-30T08:24:41;101589.81;;;17.82;73.74
60465;BME280;46314;52.392;9.758;2022-08-30T08:27:07;101581.69;;;17.72;74.69
60465;BME280;46314;52.392;9.758;2022-08-30T08:29:34;101581.31;;;17.47;75.32
60465;BME280;46314;52.392;9.758;2022-08-30T08:32:00;101580.78;;;17.36;76.00
60465;BME280;46314;52.392;9.758;2022-08-30T08:34:27;101587.25;;;17.46;74.74
60465;BME280;46314;52.392;9.758;2022-08-30T08:36:53;101585.78;;;17.08;75.61
60465;BME280;46314;52.392;9.758;2022-08-30T08:39:19;101586.28;;;17.50;74.55
60465;BME280;46314;52.392;9.758;2022-08-30T08:47:19;101579.50;;;17.60;74.45
60465;BME280;46314;52.392;9.758;2022-08-30T08:49:52;101582.38;;;17.29;75.34
60465;BME280;46314;52.392;9.758;2022-08-30T08:52:24;101588.84;;;17.95;72.11
60465;BME280;46314;52.392;9.758;2022-08-30T08:54:55;101592.41;;;17.61;74.30
60465;BME280;46314;52.392;9.758;2022-08-30T08:57:25;101591.56;;;17.69;74.42
60465;BME280;46314;52.392;9.758;2022-08-30T08:59:53;101592.19;;;17.40;75.38
60465;BME280;46314;52.392;9.758;2022-08-30T09:02:26;101596.25;;;17.34;76.00
60465;BME280;46314;52.392;9.758;2022-08-30T09:04:55;101591.94;;;17.19;76.80
60465;BME280;46314;52.392;9.758;2022-08-30T09:07:25;101590.50;;;17.39;76.17
60465;BME280;46314;52.392;9.758;2022-08-30T09:09:52;101590.44;;;17.79;75.07
60465;BME280;46314;52.392;9.758;2022-08-30T09:12:19;101589.25;;;17.54;74.93
60465;BME280;46314;52.392;9.758;2022-08-30T09:14:50;101600.84;;;17.78;74.96
60465;BME280;46314;52.392;9.758;2022-08-30T09:17:21;101597.88;;;17.66;75.47
60465;BME280;46314;52.392;9.758;2022-08-30T09:22:32;101590.22;;;17.49;75.69
60465;BME280;46314;52.392;9.758;2022-08-30T09:27:44;101585.63;;;17.71;75.37
60465;BME280;46314;52.392;9.758;2022-08-30T09:30:19;101588.34;;;18.20;73.39
60465;BME280;46314;52.392;9.758;2022-08-30T09:35:42;101590.81;;;17.95;73.47
60465;BME280;46314;52.392;9.758;2022-08-30T09:38:15;101587.47;;;17.67;73.66
60465;BME280;46314;52.392;9.758;2022-08-30T09:40:46;101591.94;;;17.76;73.82
60465;BME280;46314;52.392;9.758;2022-08-30T09:45:47;101594.94;;;18.41;71.99
60465;BME280;46314;52.392;9.758;2022-08-30T09:59:21;101596.72;;;17.76;73.65
60465;BME280;46314;52.392;9.758;2022-08-30T10:01:57;101599.09;;;18.00;72.91
60465;BME280;46314;52.392;9.758;2022-08-30T10:07:06;101599.41;;;18.51;70.47
60465;BME280;46314;52.392;9.758;2022-08-30T10:09:47;101593.69;;;19.03;68.21
60465;BME280;46314;52.392;9.758;2022-08-30T10:12:30;101587.22;;;18.21;70.78
60465;BME280;46314;52.392;9.758;2022-08-30T10:17:54;101597.09;;;18.09;70.39
60465;BME280;46314;52.392;9.758;2022-08-30T10:23:28;101587.66;;;18.84;68.66
60465;BME280;46314;52.392;9.758;2022-08-30T10:26:07;101589.47;;;18.45;69.45
60465;BME280;46314;52.392;9.758;2022-08-30T10:28:57;101583.88;;;18.10;70.82
60465;BME280;46314;52.392;9.758;2022-08-30T10:31:32;101574.25;;;18.63;69.79
60465;BME280;46314;52.392;9.758;2022-08-30T10:34:08;101576.75;;;20.01;64.74
60465;BME280;46314;52.392;9.758;2022-08-30T10:36:42;101578.09;;;19.15;67.42
60465;BME280;46314;52.392;9.758;2022-08-30T10:39:17;101569.63;;;19.83;65.34
60465;BME280;46314;52.392;9.758;2022-08-30T10:41:51;101566.16;;;18.70;68.63
60465;BME280;46314;52.392;9.758;2022-08-30T10:44:26;101566.69;;;19.71;64.65
60465;BME280;46314;52.392;9.758;2022-08-30T10:47:13;101570.63;;;19.78;64.16
60465;BME280;46314;52.392;9.758;2022-08-30T10:49:48;101565.19;;;19.14;66.02
60465;BME280;46314;52.392;9.758;2022-08-30T10:52:32;101552.72;;;19.83;63.00
60465;BME280;46314;52.392;9.758;2022-08-30T10:55:09;101558.69;;;19.22;65.44
60465;BME280;46314;52.392;9.758;2022-08-30T10:57:36;101557.69;;;19.56;64.70
60465;BME280;46314;52.392;9.758;2022-08-30T11:00:12;101547.19;;;19.65;64.16
60465;BME280;46314;52.392;9.758;2022-08-30T11:06:07;101540.84;;;19.47;64.45
60465;BME280;46314;52.392;9.758;2022-08-30T11:08:49;101540.75;;;19.65;64.15
60465;BME280;46314;52.392;9.758;2022-08-30T11:14:25;101542.00;;;19.46;64.08
60465;BME280;46314;52.392;9.758;2022-08-30T11:16:54;101542.41;;;19.87;63.05
60465;BME280;46314;52.392;9.758;2022-08-30T11:19:25;101539.25;;;20.43;60.83
60465;BME280;46314;52.392;9.758;2022-08-30T11:22:20;101537.84;;;20.37;60.68
60465;BME280;46314;52.392;9.758;2022-08-30T11:25:01;101528.56;;;20.49;60.60
60465;BME280;46314;52.392;9.758;2022-08-30T11:27:53;101522.22;;;20.73;59.62
60465;BME280;46314;52.392;9.758;2022-08-30T11:33:01;101530.34;;;21.11;57.23
60465;BME280;46314;52.392;9.758;2022-08-30T11:41:28;101518.34;;;22.04;55.18
60465;BME280;46314;52.392;9.758;2022-08-30T11:46:51;101514.22;;;22.30;55.59
60465;BME280;46314;52.392;9.758;2022-08-30T11:55:10;101506.81;;;21.69;55.46
60465;BME280;46314;52.392;9.758;2022-08-30T11:57:49;101495.06;;;21.05;55.89
60465;BME280;46314;52.392;9.758;2022-08-30T12:00:38;101495.19;;;21.21;55.15
60465;BME280;46314;52.392;9.758;2022-08-30T12:10:56;101492.50;;;21.90;52.96
60465;BME280;46314;52.392;9.758;2022-08-30T12:16:09;101485.78;;;21.17;53.63
60465;BME280;46314;52.392;9.758;2022-08-30T12:18:39;101478.31;;;22.02;52.45
60465;BME280;46314;52.392;9.758;2022-08-30T12:24:00;101474.69;;;21.61;52.37
60465;BME280;46314;52.392;9.758;2022-08-30T12:26:36;101466.13;;;21.86;51.90
60465;BME280;46314;52.392;9.758;2022-08-30T12:34:32;101466.03;;;22.55;51.72
60465;BME280;46314;52.392;9.758;2022-08-30T12:39:59;101455.97;;;21.97;50.26
60465;BME280;46314;52.392;9.758;2022-08-30T12:42:29;101456.19;;;21.76;51.70
60465;BME280;46314;52.392;9.758;2022-08-30T12:44:58;101441.72;;;22.22;50.82
60465;BME280;46314;52.392;9.758;2022-08-30T12:47:44;101443.38;;;21.94;50.77
60465;BME280;46314;52.392;9.758;2022-08-30T12:50:33;101441.03;;;22.12;51.05
60465;BME280;46314;52.392;9.758;2022-08-30T12:53:05;101445.28;;;21.90;50.85
60465;BME280;46314;52.392;9.758;2022-08-30T13:06:38;101425.66;;;22.26;48.92
60465;BME280;46314;52.392;9.758;2022-08-30T13:09:06;101422.06;;;22.57;48.29
60465;BME280;46314;52.392;9.758;2022-08-30T13:11:32;101415.94;;;22.87;47.58
60465;BME280;46314;52.392;9.758;2022-08-30T13:16:46;101400.47;;;23.36;46.62
60465;BME280;46314;52.392;9.758;2022-08-30T13:19:30;101407.97;;;23.09;46.94
60465;BME280;46314;52.392;9.758;2022-08-30T13:21:58;101399.72;;;22.68;47.25
60465;BME280;46314;52.392;9.758;2022-08-30T13:24:26;101397.19;;;22.98;46.81
60465;BME280;46314;52.392;9.758;2022-08-30T13:26:55;101399.84;;;22.91;46.28
60465;BME280;46314;52.392;9.758;2022-08-30T13:29:25;101403.28;;;22.33;47.40
60465;BME280;46314;52.392;9.758;2022-08-30T13:31:52;101397.59;;;22.81;46.90
60465;BME280;46314;52.392;9.758;2022-08-30T13:34:19;101397.81;;;22.56;46.84
60465;BME280;46314;52.392;9.758;2022-08-30T13:36:49;101396.44;;;22.66;47.18
60465;BME280;46314;52.392;9.758;2022-08-30T13:39:16;101388.91;;;22.90;46.68
60465;BME280;46314;52.392;9.758;2022-08-30T13:41:46;101388.09;;;23.05;46.11
60465;BME280;46314;52.392;9.758;2022-08-30T13:44:13;101391.09;;;22.96;45.86
60465;BME280;46314;52.392;9.758;2022-08-30T13:46:44;101386.56;;;23.66;44.42
60465;BME280;46314;52.392;9.758;2022-08-30T13:49:27;101386.63;;;23.89;44.08
60465;BME280;46314;52.392;9.758;2022-08-30T13:52:14;101390.66;;;23.49;44.47
60465;BME280;46314;52.392;9.758;2022-08-30T13:54:50;101392.59;;;23.84;43.95
60465;BME280;46314;52.392;9.758;2022-08-30T13:57:19;101388.81;;;24.19;42.63
60465;BME280;46314;52.392;9.758;2022-08-30T14:00:10;101383.81;;;24.59;42.67
60465;BME280;46314;52.392;9.758;2022-08-30T14:02:37;101389.50;;;24.85;41.86
60465;BME280;46314;52.392;9.758;2022-08-30T14:05:13;101390.03;;;24.91;41.56
60465;BME280;46314;52.392;9.758;2022-08-30T14:07:59;101389.53;;;25.42;40.32
60465;BME280;46314;52.392;9.758;2022-08-30T14:10:28;101383.47;;;25.13;40.33
60465;BME280;46314;52.392;9.758;2022-08-30T14:12:56;101380.28;;;24.65;41.24
60465;BME280;46314;52.392;9.758;2022-08-30T14:15:35;101374.88;;;23.68;42.87
60465;BME280;46314;52.392;9.758;2022-08-30T14:18:05;101371.72;;;23.92;42.72
60465;BME280;46314;52.392;9.758;2022-08-30T14:20:32;101375.25;;;23.47;44.11
60465;BME280;46314;52.392;9.758;2022-08-30T14:22:58;101379.31;;;23.88;43.33
60465;BME280;46314;52.392;9.758;2022-08-30T14:25:24;101375.53;;;23.61;43.18
60465;BME280;46314;52.392;9.758;2022-08-30T14:27:51;101382.38;;;23.21;44.25
60465;BME280;46314;52.392;9.758;2022-08-30T14:30:17;101370.53;;;23.35;44.39
60465;BME280;46314;52.392;9.758;2022-08-30T14:32:46;101373.81;;;23.37;43.93
60465;BME280;46314;52.392;9.758;2022-08-30T14:35:13;101376.28;;;23.38;43.85